Time;durP1;ratioP1;P1;durP2;ratioP2;P2;SDS_P1;SDS_P2;PMS_P1;PMS_P2;Temp;Humidity;BMP_temperature;BMP_pressure;BME280_temperature;BME280_humidity;BME280_pressure;Samples;Min_cycle;Max_cycle;Signal;HPM_P1;HPM_P2
2021/11/08 00:02:14;;;;;;;2.93;2.63;;;;;;;6.48;78.55;97801.69;6267219;28;20223;-72
2021/11/08 00:05:16;;;;;;;3.53;2.80;;;;;;;6.50;78.57;97791.94;6267259;28;20769;-72
2021/11/08 00:08:18;;;;;;;3.40;2.70;;;;;;;6.53;78.22;97801.41;6266851;28;20718;-72
2021/11/08 00:11:22;;;;;;;4.27;2.70;;;;;;;6.54;76.94;97801.31;6266956;28;20259;-71
2021/11/08 00:14:25;;;;;;;2.90;2.57;;;;;;;6.56;77.52;97795.97;6266319;28;20710;-71
2021/11/08 00:20:45;;;;;;;3.70;2.53;;;;;;;6.59;77.17;97806.25;6266722;28;20656;-73
2021/11/08 00:23:48;;;;;;;2.73;2.47;;;;;;;6.60;77.03;97802.69;6266370;28;20669;-72
2021/11/08 00:26:52;;;;;;;4.53;2.50;;;;;;;6.62;76.95;97801.66;6266345;28;20281;-72
2021/11/08 00:29:54;;;;;;;2.23;2.03;;;;;;;6.63;77.37;97802.50;6250144;28;20192;-73
2021/11/08 00:32:58;;;;;;;2.60;2.27;;;;;;;6.63;77.09;97798.09;6268076;28;20668;-72
2021/11/08 00:36:01;;;;;;;3.10;2.33;;;;;;;6.64;76.88;97791.94;6268094;28;20222;-71
2021/11/08 00:39:04;;;;;;;2.43;1.93;;;;;;;6.63;76.59;97799.88;6269617;28;20243;-72
2021/11/08 00:42:07;;;;;;;2.93;1.87;;;;;;;6.63;77.36;97810.38;6268071;28;20557;-72
2021/11/08 00:45:11;;;;;;;2.00;1.80;;;;;;;6.65;76.80;97814.59;6268784;28;20194;-72
2021/11/08 00:48:16;;;;;;;4.60;2.57;;;;;;;6.65;76.73;97822.47;6269389;28;20200;-71
2021/11/08 00:51:18;;;;;;;2.23;2.03;;;;;;;6.64;77.43;97815.53;6267509;28;20247;-72
2021/11/08 00:54:21;;;;;;;2.73;2.50;;;;;;;6.68;76.75;97807.47;6269040;28;20554;-73
2021/11/08 00:57:26;;;;;;;3.00;2.43;;;;;;;6.66;77.12;97811.03;6267962;28;20193;-71
2021/11/08 01:00:31;;;;;;;3.90;2.80;;;;;;;6.68;77.12;97805.69;6268656;28;20193;-72
2021/11/08 01:03:40;;;;;;;2.60;2.40;;;;;;;6.65;76.97;97804.09;6268947;28;20681;-72
2021/11/08 01:06:42;;;;;;;2.60;2.10;;;;;;;6.62;77.67;97806.91;6268231;28;20665;-71
2021/11/08 01:09:45;;;;;;;3.67;3.10;;;;;;;6.58;77.46;97802.81;6268972;28;20191;-72
2021/11/08 01:12:48;;;;;;;3.50;3.10;;;;;;;6.56;77.47;97802.06;6267146;28;20599;-71
2021/11/08 01:15:51;;;;;;;7.10;4.50;;;;;;;6.56;78.27;97815.16;6300405;28;20239;-71
2021/11/08 01:18:55;;;;;;;6.77;4.37;;;;;;;6.59;78.05;97819.34;6268940;28;20202;-72
2021/11/08 01:22:08;;;;;;;5.90;4.63;;;;;;;6.61;78.01;97814.88;6267104;28;20268;-72
2021/11/08 01:25:11;;;;;;;5.53;4.47;;;;;;;6.59;77.81;97814.13;6268093;28;20168;-75
2021/11/08 01:28:13;;;;;;;6.33;5.00;;;;;;;6.64;78.04;97819.94;6242198;28;20281;-72
2021/11/08 01:31:17;;;;;;;5.50;4.50;;;;;;;6.65;77.85;97832.94;6258666;28;20274;-72
2021/11/08 01:34:19;;;;;;;5.27;4.27;;;;;;;6.66;77.73;97832.00;6264479;28;20713;-72
2021/11/08 01:37:22;;;;;;;6.40;4.30;;;;;;;6.61;77.77;97820.13;6266735;28;20255;-71
2021/11/08 01:40:24;;;;;;;5.63;4.37;;;;;;;6.58;78.25;97822.94;6268204;28;20199;-72
2021/11/08 01:43:26;;;;;;;4.97;4.53;;;;;;;6.56;78.05;97817.78;6267993;28;20696;-72
2021/11/08 01:46:28;;;;;;;6.70;4.90;;;;;;;6.58;77.83;97826.41;6268184;28;20186;-72
2021/11/08 01:49:31;;;;;;;5.53;4.40;;;;;;;6.60;78.26;97826.28;6272101;28;20188;-72
2021/11/08 01:52:34;;;;;;;5.20;4.17;;;;;;;6.60;78.34;97829.75;6272855;28;20190;-71
2021/11/08 01:55:37;;;;;;;5.90;4.80;;;;;;;6.62;78.28;97845.41;6273300;28;20289;-73
2021/11/08 01:58:39;;;;;;;5.70;4.80;;;;;;;6.62;78.17;97840.16;6272611;28;20255;-72
2021/11/08 02:01:41;;;;;;;7.40;4.80;;;;;;;6.62;78.20;97841.00;6273144;28;20762;-71
2021/11/08 02:04:43;;;;;;;5.30;4.13;;;;;;;6.64;78.14;97839.13;6273079;28;20212;-75
2021/11/08 02:07:46;;;;;;;4.17;3.40;;;;;;;6.62;78.21;97841.00;6272663;28;20666;-72
2021/11/08 02:10:50;;;;;;;4.73;4.20;;;;;;;6.57;78.29;97848.31;6272497;28;20255;-72
2021/11/08 02:13:56;;;;;;;6.40;4.63;;;;;;;6.60;78.40;97840.25;6272648;28;20203;-72
2021/11/08 02:16:58;;;;;;;5.33;4.03;;;;;;;6.62;77.94;97854.09;6272565;28;20194;-71
2021/11/08 02:20:24;;;;;;;4.30;3.87;;;;;;;6.63;77.85;97853.19;6272514;28;20189;-71
2021/11/08 02:23:26;;;;;;;5.23;4.37;;;;;;;6.62;77.97;97861.13;6272789;28;20181;-73
2021/11/08 02:26:35;;;;;;;5.20;4.30;;;;;;;6.64;77.86;97849.63;6272386;28;20680;-72
2021/11/08 02:29:37;;;;;;;3.90;3.50;;;;;;;6.65;78.27;97860.94;6268351;28;20199;-72
2021/11/08 02:32:41;;;;;;;5.83;4.33;;;;;;;6.65;78.04;97868.81;6272597;28;20559;-71
2021/11/08 02:35:44;;;;;;;3.83;3.50;;;;;;;6.65;77.94;97867.03;6271775;28;20208;-71
2021/11/08 02:38:49;;;;;;;4.10;3.70;;;;;;;6.65;77.83;97866.19;6270743;28;20227;-72
2021/11/08 02:41:52;;;;;;;3.40;3.10;;;;;;;6.62;78.14;97864.59;6272151;28;20695;-71
2021/11/08 02:44:56;;;;;;;5.23;4.30;;;;;;;6.63;78.22;97868.91;6272118;28;20591;-72
2021/11/08 02:47:59;;;;;;;5.23;3.93;;;;;;;6.64;77.58;97878.47;6271979;28;20846;-71
2021/11/08 02:51:12;;;;;;;4.10;3.70;;;;;;;6.65;77.86;97872.28;6304312;28;20206;-72
2021/11/08 02:54:26;;;;;;;4.67;3.97;;;;;;;6.65;77.92;97874.06;6247374;28;20640;-72
2021/11/08 02:57:29;;;;;;;4.40;4.00;;;;;;;6.65;77.93;97871.44;6269887;28;20273;-72
2021/11/08 03:00:31;;;;;;;4.93;4.43;;;;;;;6.64;77.66;97870.59;6270510;28;20196;-71
2021/11/08 03:03:38;;;;;;;4.63;4.07;;;;;;;6.64;77.60;97865.34;6271702;28;20253;-72
2021/11/08 03:06:40;;;;;;;4.27;3.87;;;;;;;6.60;78.12;97865.63;6271073;28;20203;-72
2021/11/08 03:09:49;;;;;;;5.10;4.30;;;;;;;6.62;78.13;97869.84;6270402;28;20617;-70
2021/11/08 03:12:54;;;;;;;5.60;4.70;;;;;;;6.59;77.92;97866.56;6269785;28;20227;-72
2021/11/08 03:16:09;;;;;;;4.80;3.80;;;;;;;6.58;78.09;97871.00;6271372;28;20216;-71
2021/11/08 03:19:18;;;;;;;4.87;4.33;;;;;;;6.56;78.08;97870.22;6270882;28;20686;-71
2021/11/08 03:22:25;;;;;;;6.73;5.00;;;;;;;6.60;77.80;97879.56;6271341;28;20177;-71
2021/11/08 03:25:38;;;;;;;5.73;4.30;;;;;;;6.61;77.42;97886.50;6271443;28;20719;-72
2021/11/08 03:28:40;;;;;;;5.67;4.63;;;;;;;6.59;78.00;97877.03;6269747;28;20218;-72
2021/11/08 03:31:47;;;;;;;5.40;4.70;;;;;;;6.57;77.86;97882.41;6271145;28;20197;-71
2021/11/08 03:34:57;;;;;;;6.80;4.53;;;;;;;6.56;77.79;97890.38;6269075;28;20218;-72
2021/11/08 03:38:01;;;;;;;5.47;4.53;;;;;;;6.54;77.96;97884.38;6270767;28;20216;-71
2021/11/08 03:41:04;;;;;;;5.87;5.27;;;;;;;6.55;77.41;97892.13;6269207;28;20574;-72
2021/11/08 03:44:07;;;;;;;5.80;4.97;;;;;;;6.56;77.52;97892.97;6270809;28;20276;-72
2021/11/08 03:47:09;;;;;;;5.70;5.17;;;;;;;6.54;78.11;97889.59;6270490;28;20194;-72
2021/11/08 03:50:11;;;;;;;5.83;4.83;;;;;;;6.48;77.76;97896.06;6270259;28;20633;-72
2021/11/08 03:53:13;;;;;;;6.67;4.90;;;;;;;6.46;77.77;97887.47;6270974;28;20199;-71
2021/11/08 03:56:16;;;;;;;5.87;5.00;;;;;;;6.47;77.54;97889.16;6269789;28;20706;-72
2021/11/08 03:59:18;;;;;;;6.17;5.40;;;;;;;6.47;77.56;97878.66;6270431;28;20281;-70
2021/11/08 04:02:21;;;;;;;6.73;5.67;;;;;;;6.47;77.00;97883.91;6270360;28;20199;-72
2021/11/08 04:05:26;;;;;;;6.97;5.63;;;;;;;6.45;77.41;97885.75;6269944;28;20669;-72
2021/11/08 04:08:30;;;;;;;6.07;5.47;;;;;;;6.44;77.37;97897.19;6270406;28;20192;-72
2021/11/08 04:11:32;;;;;;;5.13;4.50;;;;;;;6.44;77.30;97904.22;6267714;28;20235;-72
2021/11/08 04:14:37;;;;;;;6.83;5.50;;;;;;;6.41;77.43;97894.75;6268726;28;20196;-72
2021/11/08 04:17:46;;;;;;;5.67;5.03;;;;;;;6.38;77.36;97888.84;6252414;28;20210;-72
2021/11/08 04:20:50;;;;;;;9.27;5.80;;;;;;;6.36;77.48;97890.72;6269526;28;20176;-72
2021/11/08 04:23:54;;;;;;;8.30;5.73;;;;;;;6.31;77.51;97901.47;6245305;28;20184;-73
2021/11/08 04:26:56;;;;;;;6.87;5.53;;;;;;;6.32;76.80;97883.97;6265975;28;20184;-73
2021/11/08 04:29:59;;;;;;;6.73;5.07;;;;;;;6.30;77.03;97895.38;6270195;28;20197;-73
2021/11/08 04:33:13;;;;;;;6.50;5.20;;;;;;;6.26;76.90;97893.06;6299062;28;20281;-72
2021/11/08 04:40:04;;;;;;;7.07;5.97;;;;;;;6.19;77.62;97895.16;6254517;28;20216;-73
2021/11/08 04:52:39;;;;;;;5.73;4.23;;;;;;;6.09;77.30;97901.06;6269348;28;20193;-71
2021/11/08 05:22:33;;;;;;;9.67;6.47;;;;;;;5.91;77.85;97918.69;6267162;28;20191;-72
2021/11/08 05:32:16;;;;;;;7.13;5.67;;;;;;;5.96;77.40;97931.53;6258541;28;20204;-72
2021/11/08 05:35:19;;;;;;;7.63;5.70;;;;;;;5.94;77.07;97936.84;6260144;28;20215;-72
2021/11/08 05:38:21;;;;;;;9.10;5.67;;;;;;;5.88;78.02;97943.28;6267406;28;20224;-72
2021/11/08 05:41:23;;;;;;;5.93;4.20;;;;;;;5.80;77.49;97950.69;6267796;28;20190;-71
2021/11/08 05:44:25;;;;;;;7.27;4.73;;;;;;;5.72;77.66;97955.53;6266985;28;20238;-71
2021/11/08 05:47:29;;;;;;;5.87;5.03;;;;;;;5.66;77.81;97961.13;6266473;28;20191;-72
2021/11/08 05:50:39;;;;;;;8.93;5.07;;;;;;;5.63;78.22;97979.59;6268736;28;20226;-72
2021/11/08 05:53:47;;;;;;;7.70;5.27;;;;;;;5.67;77.90;97980.28;6267158;28;20199;-72
2021/11/08 06:50:20;;;;;;;5.63;4.30;;;;;;;6.26;74.43;98092.22;6271864;28;20207;-73
2021/11/08 06:53:22;;;;;;;4.83;4.20;;;;;;;6.32;74.68;98098.88;6270317;28;20192;-72
2021/11/08 06:56:27;;;;;;;5.93;5.30;;;;;;;6.37;73.87;98110.81;6271156;28;20708;-72
2021/11/08 06:59:30;;;;;;;6.87;4.40;;;;;;;6.42;73.89;98121.03;6270377;28;20172;-73
2021/11/08 07:02:35;;;;;;;6.97;4.90;;;;;;;6.44;73.98;98124.41;6271184;28;20188;-73
2021/11/08 07:05:38;;;;;;;5.47;4.10;;;;;;;6.48;74.19;98129.41;6270252;28;20201;-72
2021/11/08 07:08:40;;;;;;;6.77;4.43;;;;;;;6.54;74.11;98134.28;6269353;28;20580;-72
2021/11/08 07:11:43;;;;;;;6.13;4.27;;;;;;;6.58;73.87;98137.59;6269834;28;20262;-71
2021/11/08 07:14:45;;;;;;;6.20;4.67;;;;;;;6.63;73.62;98146.03;6269629;28;20207;-72
2021/11/08 07:17:48;;;;;;;6.10;3.97;;;;;;;6.68;73.71;98148.41;6270580;28;20700;-72
2021/11/08 07:20:50;;;;;;;6.43;3.80;;;;;;;6.72;74.03;98163.03;6270024;28;20195;-74
2021/11/08 07:23:52;;;;;;;5.13;3.90;;;;;;;6.74;73.45;98167.25;6270727;28;20192;-73
2021/11/08 07:26:55;;;;;;;7.87;4.13;;;;;;;6.77;72.60;98166.25;6269408;28;20281;-73
2021/11/08 07:29:57;;;;;;;6.90;3.77;;;;;;;6.82;72.74;98153.69;6261451;28;20202;-72
2021/11/08 07:32:59;;;;;;;5.93;3.97;;;;;;;6.85;72.66;98150.91;6266250;28;20215;-72
2021/11/08 07:36:02;;;;;;;5.27;3.60;;;;;;;6.92;72.27;98154.84;6270960;28;20296;-71
2021/11/08 07:39:05;;;;;;;6.17;3.23;;;;;;;6.98;72.59;98146.63;6268672;28;20227;-71
2021/11/08 07:42:08;;;;;;;4.53;3.00;;;;;;;7.05;72.00;98142.72;6270457;28;20196;-71
2021/11/08 07:45:10;;;;;;;5.53;3.47;;;;;;;7.14;71.99;98151.81;6268778;28;20658;-71
2021/11/08 07:48:12;;;;;;;5.73;3.70;;;;;;;7.21;71.26;98155.78;6270053;28;20264;-70
2021/11/08 07:51:17;;;;;;;6.57;3.50;;;;;;;7.27;71.50;98148.41;6270254;28;20265;-72
2021/11/08 07:54:19;;;;;;;5.77;3.07;;;;;;;7.32;70.87;98146.31;6268618;28;20207;-71
2021/11/08 07:57:22;;;;;;;5.67;3.70;;;;;;;7.32;70.21;98137.59;6269061;28;20636;-71
2021/11/08 08:00:24;;;;;;;9.73;3.40;;;;;;;7.35;69.97;98146.16;6269596;28;20697;-71
2021/11/08 08:03:28;;;;;;;5.17;3.30;;;;;;;7.40;69.70;98146.69;6270271;28;20320;-71
2021/11/08 08:06:30;;;;;;;5.40;3.83;;;;;;;7.48;69.23;98145.41;6269904;28;20608;-72
2021/11/08 08:09:32;;;;;;;3.33;2.57;;;;;;;7.54;69.51;98147.66;6268350;28;20195;-71
2021/11/08 08:12:35;;;;;;;5.50;2.73;;;;;;;7.62;69.57;98150.66;6269624;28;20231;-72
2021/11/08 08:15:42;;;;;;;5.20;3.00;;;;;;;7.63;67.58;98154.97;6269366;28;20231;-71
2021/11/08 08:18:47;;;;;;;5.90;2.73;;;;;;;7.59;67.58;98149.06;6269447;28;20199;-71
2021/11/08 08:21:49;;;;;;;5.63;2.90;;;;;;;7.55;67.44;98159.84;6252014;28;20216;-71
2021/11/08 08:24:51;;;;;;;4.57;2.57;;;;;;;7.45;66.29;98159.56;6267661;28;20196;-71
2021/11/08 08:27:53;;;;;;;6.20;3.20;;;;;;;7.44;67.05;98163.13;6268048;28;20192;-71
2021/11/08 08:30:58;;;;;;;4.47;2.40;;;;;;;7.43;66.98;98164.06;6269131;28;20194;-71
2021/11/08 08:34:00;;;;;;;4.40;2.47;;;;;;;7.51;66.49;98174.09;6268146;28;20197;-71
2021/11/08 08:37:02;;;;;;;4.77;2.60;;;;;;;7.62;65.82;98176.94;6267721;28;20660;-70
2021/11/08 08:40:05;;;;;;;5.30;2.87;;;;;;;7.70;65.20;98178.16;6268937;28;20201;-71
2021/11/08 08:43:08;;;;;;;5.57;3.00;;;;;;;7.86;65.46;98187.75;6269358;28;20200;-71
2021/11/08 08:46:13;;;;;;;4.37;2.97;;;;;;;8.02;64.94;98202.47;6268535;28;20276;-71
2021/11/08 08:49:18;;;;;;;5.87;2.90;;;;;;;8.06;64.76;98193.47;6269012;28;20713;-72
2021/11/08 08:52:20;;;;;;;7.80;3.33;;;;;;;8.34;63.49;98186.50;6267234;28;20208;-71
2021/11/08 08:55:23;;;;;;;6.70;3.00;;;;;;;8.61;63.35;98181.25;6268679;28;20659;-71
2021/11/08 08:58:25;;;;;;;6.50;3.00;;;;;;;8.81;62.04;98184.28;6268630;28;20202;-71
2021/11/08 09:01:27;;;;;;;7.93;3.03;;;;;;;8.89;61.47;98186.41;6268728;28;20272;-71
2021/11/08 09:04:29;;;;;;;5.00;3.10;;;;;;;9.20;61.37;98182.59;6267424;28;20194;-71
2021/11/08 09:07:33;;;;;;;3.63;2.33;;;;;;;9.42;59.57;98192.56;6266924;28;20201;-71
2021/11/08 09:10:36;;;;;;;4.93;2.90;;;;;;;9.74;59.10;98187.72;6268234;28;20226;-71
2021/11/08 09:13:38;;;;;;;4.50;2.57;;;;;;;9.89;57.86;98192.78;6268751;28;20345;-71
2021/11/08 09:16:40;;;;;;;4.00;2.43;;;;;;;9.97;57.56;98208.09;6267682;28;20217;-72
2021/11/08 09:19:42;;;;;;;4.37;2.50;;;;;;;9.97;56.68;98192.28;6268563;28;20206;-71
2021/11/08 09:22:49;;;;;;;3.93;2.60;;;;;;;9.84;56.66;98188.78;6267670;28;20268;-71
2021/11/08 09:25:51;;;;;;;8.63;2.53;;;;;;;9.45;56.45;98213.44;6267135;28;20186;-72
2021/11/08 09:28:54;;;;;;;3.30;2.30;;;;;;;9.28;56.84;98217.22;6267509;28;20191;-71
2021/11/08 09:31:56;;;;;;;5.73;1.70;;;;;;;9.25;56.80;98215.63;6266898;28;20653;-71
2021/11/08 09:34:58;;;;;;;4.93;1.57;;;;;;;9.12;57.53;98221.78;6268218;28;20457;-73
2021/11/08 09:38:02;;;;;;;6.07;2.10;;;;;;;8.96;57.51;98224.59;6266629;28;20222;-74
2021/11/08 09:41:11;;;;;;;4.27;2.10;;;;;;;8.90;56.50;98217.06;6267992;28;20667;-72
2021/11/08 09:44:13;;;;;;;5.73;1.80;;;;;;;8.86;57.52;98216.44;6267601;28;20195;-72
2021/11/08 09:47:15;;;;;;;3.80;1.90;;;;;;;8.96;57.49;98223.75;6283308;28;20201;-72
2021/11/08 09:50:21;;;;;;;4.63;1.97;;;;;;;8.99;57.89;98232.25;6266833;28;20225;-71
2021/11/08 09:53:23;;;;;;;5.07;2.47;;;;;;;9.15;57.76;98240.00;6267516;28;20218;-71
2021/11/08 09:56:25;;;;;;;2.93;1.80;;;;;;;9.29;57.11;98239.09;6267529;28;20277;-71
2021/11/08 09:59:31;;;;;;;5.57;2.40;;;;;;;9.14;57.14;98233.91;6266031;28;20203;-72
2021/11/08 10:02:34;;;;;;;5.47;2.40;;;;;;;9.00;58.77;98227.84;6266704;28;20191;-73
2021/11/08 10:05:42;;;;;;;5.10;2.43;;;;;;;8.91;59.25;98231.91;6267767;28;20215;-72
2021/11/08 10:08:53;;;;;;;5.97;2.67;;;;;;;9.00;58.94;98227.84;6266854;28;20184;-70
2021/11/08 10:11:56;;;;;;;5.53;2.30;;;;;;;8.98;58.67;98216.59;6271490;28;20554;-72
2021/11/08 10:14:58;;;;;;;2.47;1.83;;;;;;;9.15;58.71;98203.16;6270822;28;20190;-72
2021/11/08 10:18:02;;;;;;;5.77;1.63;;;;;;;9.38;57.36;98215.66;6272281;28;20284;-71
2021/11/08 10:21:11;;;;;;;2.70;1.80;;;;;;;9.66;57.03;98212.00;6270478;28;20202;-71
2021/11/08 10:24:16;;;;;;;3.27;1.93;;;;;;;9.87;55.13;98209.69;6272518;28;20200;-71
2021/11/08 10:27:18;;;;;;;4.00;1.73;;;;;;;10.11;54.89;98200.03;6271072;28;20192;-71
2021/11/08 10:30:34;;;;;;;2.50;1.70;;;;;;;10.22;53.58;98201.97;6271768;28;20224;-71
2021/11/08 10:33:38;;;;;;;3.60;2.07;;;;;;;10.42;53.62;98200.53;6272537;28;20188;-70
2021/11/08 10:36:41;;;;;;;4.07;1.97;;;;;;;10.59;53.46;98201.03;6271093;28;20223;-72
2021/11/08 10:39:46;;;;;;;3.77;2.10;;;;;;;10.31;52.10;98214.50;6270965;28;20192;-71
2021/11/08 10:42:57;;;;;;;3.97;1.77;;;;;;;10.24;53.30;98207.97;6271677;28;20199;-71
2021/11/08 10:46:16;;;;;;;4.33;1.90;;;;;;;10.14;53.57;98206.91;6271983;28;20196;-73
2021/11/08 10:49:21;;;;;;;4.13;2.03;;;;;;;10.08;53.64;98205.53;6262545;28;20310;-72
2021/11/08 10:52:29;;;;;;;2.57;1.60;;;;;;;10.13;53.97;98206.06;6245513;28;20208;-71
2021/11/08 10:55:32;;;;;;;3.50;1.80;;;;;;;10.44;53.60;98198.66;6261614;28;20689;-72
2021/11/08 10:58:34;;;;;;;5.00;2.20;;;;;;;10.56;52.76;98203.91;6270918;28;20218;-72
2021/11/08 11:01:51;;;;;;;6.73;2.37;;;;;;;10.68;53.04;98191.63;6271648;28;20191;-71
2021/11/08 11:04:58;;;;;;;7.07;2.07;;;;;;;10.69;52.97;98202.03;6286783;28;20203;-71
2021/11/08 11:08:02;;;;;;;5.23;1.90;;;;;;;10.66;52.80;98212.00;6269637;28;20192;-71
2021/11/08 11:11:05;;;;;;;4.97;2.10;;;;;;;10.59;52.45;98213.38;6271060;28;20227;-71
2021/11/08 11:14:08;;;;;;;5.07;1.90;;;;;;;10.55;53.08;98199.56;6269761;28;20196;-72
2021/11/08 11:17:33;;;;;;;4.33;2.37;;;;;;;10.27;52.97;98192.78;6270729;28;20226;-70
2021/11/08 11:20:37;;;;;;;4.23;2.00;;;;;;;10.20;54.02;98195.94;6269079;28;20197;-70
2021/11/08 11:23:48;;;;;;;3.03;1.90;;;;;;;10.14;53.47;98204.28;6270935;28;20200;-72
2021/11/08 11:26:51;;;;;;;5.00;2.10;;;;;;;10.09;53.63;98201.94;6270510;28;20229;-72
2021/11/08 11:30:10;;;;;;;3.23;2.20;;;;;;;9.99;53.13;98198.25;6270604;28;20190;-71
2021/11/08 11:33:15;;;;;;;3.13;2.00;;;;;;;10.04;53.10;98198.78;6269395;28;20195;-71
2021/11/08 11:36:18;;;;;;;5.10;2.13;;;;;;;10.12;53.47;98201.72;6269987;28;20211;-70
2021/11/08 11:39:21;;;;;;;4.00;1.87;;;;;;;10.17;53.42;98201.44;6270476;28;20207;-71
2021/11/08 11:42:24;;;;;;;3.93;2.30;;;;;;;10.27;53.34;98200.69;6269953;28;20192;-72
2021/11/08 11:45:28;;;;;;;3.67;2.33;;;;;;;10.13;53.52;98195.50;6270440;28;20293;-71
2021/11/08 11:48:32;;;;;;;6.43;2.80;;;;;;;9.95;54.05;98200.28;6270165;28;20191;-71
2021/11/08 11:51:46;;;;;;;4.53;2.30;;;;;;;9.88;55.13;98204.28;6269974;28;20194;-70
2021/11/08 11:54:49;;;;;;;5.00;2.13;;;;;;;9.98;54.15;98202.69;6268654;28;20191;-71
2021/11/08 11:57:55;;;;;;;4.50;1.80;;;;;;;10.20;54.57;98201.22;6269552;28;20587;-71
2021/11/08 12:00:59;;;;;;;2.40;1.80;;;;;;;10.25;53.81;98196.47;6268630;28;20199;-71
2021/11/08 12:04:01;;;;;;;3.97;2.00;;;;;;;10.19;53.54;98191.63;6268729;28;20563;-71
2021/11/08 12:07:06;;;;;;;4.80;2.30;;;;;;;10.00;54.13;98184.13;6269191;28;20190;-72
2021/11/08 12:10:09;;;;;;;4.70;2.10;;;;;;;9.89;54.45;98178.75;6269729;28;20188;-71
2021/11/08 12:13:16;;;;;;;6.00;2.17;;;;;;;9.80;54.90;98171.47;6269344;28;20184;-71
2021/11/08 12:16:21;;;;;;;2.60;1.90;;;;;;;9.70;54.83;98173.06;6268248;28;20313;-72
2021/11/08 12:19:27;;;;;;;3.23;2.27;;;;;;;9.59;55.19;98164.09;6244281;28;20289;-71
2021/11/08 12:22:32;;;;;;;4.03;2.10;;;;;;;9.71;55.08;98165.06;6267467;28;20199;-70
2021/11/08 12:25:44;;;;;;;3.07;2.13;;;;;;;10.32;53.46;98150.25;6268193;28;20202;-71
2021/11/08 12:28:47;;;;;;;3.77;2.10;;;;;;;10.67;51.96;98152.97;6268697;28;20281;-73
2021/11/08 12:32:04;;;;;;;6.20;2.50;;;;;;;10.87;51.54;98148.88;6269086;28;20195;-71
2021/11/08 12:35:14;;;;;;;5.27;2.20;;;;;;;11.12;50.79;98148.72;6267553;28;20576;-71
2021/11/08 12:38:34;;;;;;;3.90;2.20;;;;;;;11.26;50.59;98142.41;6268978;28;20709;-71
2021/11/08 12:41:47;;;;;;;3.23;2.03;;;;;;;11.73;50.67;98141.41;6268637;28;20691;-71
2021/11/08 12:44:51;;;;;;;4.90;2.00;;;;;;;12.91;47.30;98126.56;6267682;28;20622;-71
2021/11/08 12:48:13;;;;;;;3.73;2.00;;;;;;;13.26;45.34;98134.28;6269248;28;20199;-71
2021/11/08 12:51:21;;;;;;;4.67;2.30;;;;;;;13.04;45.14;98128.19;6268491;28;20196;-72
2021/11/08 12:54:26;;;;;;;4.43;2.00;;;;;;;13.56;44.29;98127.34;6268832;28;20549;-72
2021/11/08 12:57:30;;;;;;;3.80;2.23;;;;;;;15.90;39.36;98122.06;6266804;28;20214;-73
2021/11/08 13:00:40;;;;;;;3.13;1.70;;;;;;;15.85;38.81;98119.84;6268680;28;20195;-71
2021/11/08 13:03:45;;;;;;;5.27;2.30;;;;;;;14.04;41.67;98130.22;6267359;28;20555;-71
2021/11/08 13:06:48;;;;;;;6.00;2.07;;;;;;;12.43;45.38;98119.97;6268348;28;20280;-71
2021/11/08 13:09:56;;;;;;;4.17;1.80;;;;;;;11.90;46.58;98135.66;6268726;28;20200;-72
2021/11/08 13:13:00;;;;;;;2.83;1.90;;;;;;;11.50;48.05;98131.75;6268555;28;20224;-72
2021/11/08 13:16:07;;;;;;;4.17;1.60;;;;;;;11.09;48.86;98131.28;6268331;28;20192;-71
2021/11/08 13:19:14;;;;;;;4.13;1.90;;;;;;;10.76;50.11;98122.41;6266476;28;20218;-71
2021/11/08 13:22:21;;;;;;;4.57;2.07;;;;;;;10.56;50.37;98131.81;6268540;28;20200;-70
2021/11/08 13:25:28;;;;;;;5.03;2.37;;;;;;;10.33;50.44;98134.31;6268447;28;20173;-72
2021/11/08 13:28:32;;;;;;;3.73;2.37;;;;;;;10.14;50.66;98131.28;6267735;28;20238;-71
2021/11/08 13:31:35;;;;;;;5.37;1.90;;;;;;;9.95;50.93;98134.38;6258879;28;20216;-71
2021/11/08 13:34:37;;;;;;;4.57;2.27;;;;;;;9.75;51.99;98137.56;6263975;28;20191;-71
2021/11/08 13:37:42;;;;;;;3.63;2.00;;;;;;;9.61;52.63;98137.66;6268274;28;20356;-72
2021/11/08 13:41:15;;;;;;;5.23;2.30;;;;;;;9.43;52.15;98134.50;6266328;28;20206;-71
2021/11/08 13:44:17;;;;;;;4.93;2.07;;;;;;;9.15;53.44;98151.34;6267500;28;20284;-71
2021/11/08 13:47:19;;;;;;;5.13;2.40;;;;;;;9.03;53.37;98151.31;6267800;28;20195;-72
2021/11/08 13:50:22;;;;;;;7.00;2.07;;;;;;;8.93;54.23;98158.97;6266266;28;20608;-71
2021/11/08 13:53:30;;;;;;;2.50;1.40;;;;;;;8.89;54.54;98160.94;6268406;28;20187;-72
2021/11/08 13:56:35;;;;;;;4.00;1.97;;;;;;;8.88;54.86;98161.88;6265986;28;20686;-71
2021/11/08 13:59:41;;;;;;;3.37;1.60;;;;;;;8.81;55.17;98165.03;6267815;28;20187;-71
2021/11/08 14:02:47;;;;;;;2.67;1.70;;;;;;;8.67;54.59;98171.22;6267443;28;20210;-71
2021/11/08 14:05:51;;;;;;;3.37;1.50;;;;;;;8.59;55.25;98170.00;6266662;28;20209;-73
2021/11/08 14:08:54;;;;;;;2.30;1.70;;;;;;;8.47;55.38;98164.59;6267596;28;20710;-71
2021/11/08 14:11:58;;;;;;;3.33;1.63;;;;;;;8.42;55.87;98173.72;6267741;28;20738;-72
2021/11/08 14:15:00;;;;;;;2.13;1.67;;;;;;;8.38;56.23;98174.88;6266099;28;20210;-72
2021/11/08 14:18:03;;;;;;;2.03;1.10;;;;;;;8.35;56.97;98180.31;6267072;28;20205;-71
2021/11/08 14:21:15;;;;;;;3.10;1.50;;;;;;;8.30;57.23;98183.19;6267359;28;20196;-72
2021/11/08 14:24:23;;;;;;;2.33;1.13;;;;;;;8.35;57.69;98177.69;6267714;28;20197;-71
2021/11/08 14:27:27;;;;;;;1.40;0.87;;;;;;;8.30;57.30;98182.34;6267045;28;20184;-71
2021/11/08 14:30:30;;;;;;;2.23;1.43;;;;;;;8.14;58.77;98178.06;6267477;28;20196;-72
2021/11/08 14:33:33;;;;;;;2.70;1.30;;;;;;;7.86;59.63;98177.22;6265657;28;20206;-71
2021/11/08 14:36:49;;;;;;;3.37;1.80;;;;;;;7.55;60.27;98175.63;6267168;28;20717;-71
2021/11/08 14:39:52;;;;;;;3.87;1.50;;;;;;;7.24;61.52;98179.22;6267119;28;20203;-71
2021/11/08 14:42:54;;;;;;;3.10;1.60;;;;;;;6.91;63.11;98182.88;6265789;28;20204;-71
2021/11/08 14:45:59;;;;;;;2.53;1.10;;;;;;;6.56;63.89;98190.13;6267249;28;20647;-71
2021/11/08 14:49:16;;;;;;;1.70;1.03;;;;;;;6.37;65.09;98193.84;6266590;28;20299;-71
2021/11/08 14:52:18;;;;;;;2.03;1.40;;;;;;;6.14;65.83;98201.19;6299535;28;20202;-71
2021/11/08 14:55:25;;;;;;;2.47;1.30;;;;;;;6.00;66.55;98205.47;6268434;28;20230;-74
2021/11/08 14:58:27;;;;;;;3.23;1.53;;;;;;;5.85;66.79;98202.72;6270091;28;20280;-72
2021/11/08 15:01:30;;;;;;;2.23;1.57;;;;;;;5.73;67.37;98205.97;6247080;28;20659;-71
2021/11/08 15:04:33;;;;;;;1.33;1.10;;;;;;;5.60;67.71;98204.06;6280723;28;20669;-71
2021/11/08 15:07:40;;;;;;;1.23;1.13;;;;;;;5.49;67.90;98197.63;6271386;28;20192;-71
2021/11/08 15:10:50;;;;;;;1.67;1.07;;;;;;;5.28;68.28;98211.81;6270606;28;20821;-71
2021/11/08 15:13:52;;;;;;;3.50;1.63;;;;;;;5.12;69.56;98211.72;6270028;28;20203;-72
2021/11/08 15:16:57;;;;;;;1.93;1.47;;;;;;;5.00;70.08;98211.47;6270467;28;20248;-71
2021/11/08 15:20:18;;;;;;;3.40;1.60;;;;;;;4.89;69.62;98219.03;6271334;28;20202;-71
2021/11/08 15:23:24;;;;;;;1.87;1.40;;;;;;;4.75;70.38;98224.91;6271450;28;20200;-71
2021/11/08 15:26:27;;;;;;;3.90;1.60;;;;;;;4.62;70.79;98232.50;6270891;28;20197;-72
2021/11/08 15:29:33;;;;;;;5.03;1.60;;;;;;;4.47;71.47;98233.22;6269887;28;20249;-71
2021/11/08 15:32:37;;;;;;;3.57;1.70;;;;;;;4.33;72.25;98231.25;6271690;28;20176;-71
2021/11/08 15:35:45;;;;;;;2.13;1.33;;;;;;;4.22;71.83;98225.69;6271206;28;20678;-71
2021/11/08 15:38:49;;;;;;;3.30;1.43;;;;;;;4.13;73.25;98226.09;6269482;28;20227;-71
2021/11/08 15:41:52;;;;;;;2.27;1.97;;;;;;;4.07;73.63;98234.22;6270844;28;20205;-71
2021/11/08 15:44:54;;;;;;;2.53;1.90;;;;;;;3.95;73.37;98237.38;6266062;28;20206;-72
2021/11/08 15:47:57;;;;;;;2.40;1.70;;;;;;;3.88;74.14;98231.59;6260964;28;20291;-71
2021/11/08 15:51:00;;;;;;;3.87;1.87;;;;;;;3.72;73.85;98234.03;6253328;28;20195;-71
2021/11/08 15:54:04;;;;;;;2.87;1.80;;;;;;;3.68;74.30;98237.69;6270464;28;20192;-71
2021/11/08 15:57:06;;;;;;;6.47;1.80;;;;;;;3.56;74.78;98242.59;6270167;28;20270;-72
2021/11/08 16:00:09;;;;;;;3.00;1.60;;;;;;;3.46;74.91;98249.97;6270722;28;20217;-71
2021/11/08 16:03:12;;;;;;;4.43;2.07;;;;;;;3.31;75.16;98246.25;6269979;28;20678;-71
2021/11/08 16:06:14;;;;;;;4.47;2.00;;;;;;;3.23;75.14;98244.88;6268371;28;20658;-70
2021/11/08 16:09:16;;;;;;;4.47;2.37;;;;;;;3.15;75.29;98255.63;6269513;28;20197;-71
2021/11/08 16:12:19;;;;;;;3.73;1.90;;;;;;;3.07;75.70;98264.69;6268856;28;20227;-71
2021/11/08 16:15:21;;;;;;;5.00;2.00;;;;;;;3.00;75.92;98263.22;6268959;28;20191;-71
2021/11/08 16:18:23;;;;;;;4.10;2.23;;;;;;;2.96;76.25;98270.31;6269515;28;20232;-71
2021/11/08 16:21:26;;;;;;;2.90;2.13;;;;;;;2.96;76.67;98271.19;6270520;28;20245;-73
2021/11/08 16:24:30;;;;;;;3.87;1.80;;;;;;;2.88;76.81;98285.44;6268243;28;20605;-71